createdAt,value
2022-09-11T00:01:15.593Z,101399.75
2022-09-11T00:03:46.665Z,101408.88
2022-09-11T00:06:23.728Z,101407.00
2022-09-11T00:09:01.045Z,101413.72
2022-09-11T00:11:30.759Z,101412.09
2022-09-11T00:13:57.665Z,101419.13
2022-09-11T00:16:36.544Z,101423.84
2022-09-11T00:19:17.733Z,101427.03
2022-09-11T00:21:45.631Z,101430.00
2022-09-11T00:24:12.580Z,101424.44
2022-09-11T00:26:40.836Z,101427.56
2022-09-11T00:29:08.175Z,101413.09
2022-09-11T00:31:35.189Z,101412.47
2022-09-11T00:34:01.968Z,101405.94
2022-09-11T00:36:31.601Z,101416.38
2022-09-11T00:38:59.170Z,101412.50
2022-09-11T00:41:46.283Z,101415.78
2022-09-11T00:44:17.889Z,101421.81
2022-09-11T00:46:55.624Z,101418.25
2022-09-11T00:49:28.154Z,101421.19
2022-09-11T00:51:59.907Z,101416.78
2022-09-11T00:54:31.193Z,101413.38
2022-09-11T00:57:01.323Z,101415.97
2022-09-11T00:59:29.433Z,101419.38
2022-09-11T01:01:56.099Z,101416.22
2022-09-11T01:04:23.405Z,101409.03
2022-09-11T01:06:56.521Z,101408.88
2022-09-11T01:09:25.894Z,101418.00
2022-09-11T01:12:30.268Z,101412.69
2022-09-11T01:15:09.456Z,101411.34
2022-09-11T01:17:50.915Z,101414.72
2022-09-11T01:20:32.029Z,101412.31
2022-09-11T01:23:13.716Z,101408.59
2022-09-11T01:26:06.863Z,101405.88
2022-09-11T01:28:40.096Z,101416.84
2022-09-11T01:31:10.756Z,101411.72
2022-09-11T01:33:51.906Z,101407.47
2022-09-11T01:36:44.408Z,101404.69
2022-09-11T01:39:12.444Z,101402.75
2022-09-11T01:41:46.420Z,101409.03
2022-09-11T01:44:26.559Z,101404.88
2022-09-11T01:46:53.713Z,101400.84
2022-09-11T01:49:23.467Z,101408.59
2022-09-11T01:51:57.637Z,101397.81
2022-09-11T01:54:31.999Z,101404.28
2022-09-11T01:57:04.469Z,101404.56
2022-09-11T01:59:40.600Z,101413.50
2022-09-11T02:02:11.457Z,101410.94
2022-09-11T02:05:16.023Z,101402.50
2022-09-11T02:07:46.866Z,101412.00
2022-09-11T02:10:20.100Z,101413.59
2022-09-11T02:12:56.506Z,101403.38
2022-09-11T02:15:26.065Z,101408.34
2022-09-11T02:18:05.982Z,101411.19
2022-09-11T02:20:34.402Z,101418.38
2022-09-11T02:23:02.276Z,101421.38
2022-09-11T02:25:29.029Z,101420.91
2022-09-11T02:27:56.779Z,101417.91
2022-09-11T02:30:23.560Z,101423.44
2022-09-11T02:32:50.270Z,101421.56
2022-09-11T02:35:16.999Z,101427.66
2022-09-11T02:37:54.147Z,101438.59
2022-09-11T02:40:21.249Z,101432.59
2022-09-11T02:43:17.453Z,101431.47
2022-09-11T02:46:09.477Z,101426.03
2022-09-11T02:49:07.864Z,101425.22
2022-09-11T02:51:43.848Z,101435.53
2022-09-11T02:54:13.637Z,101441.59
2022-09-11T02:57:16.685Z,101441.81
2022-09-11T02:59:48.018Z,101440.53
2022-09-11T03:02:15.665Z,101449.88
2022-09-11T03:04:42.372Z,101441.53
2022-09-11T03:07:09.253Z,101457.25
2022-09-11T03:09:37.549Z,101458.56
2022-09-11T03:12:10.470Z,101459.66
2022-09-11T03:14:38.301Z,101463.69
2022-09-11T03:17:06.140Z,101456.94
2022-09-11T03:19:34.451Z,101452.94
2022-09-11T03:22:02.961Z,101452.41
2022-09-11T03:24:30.504Z,101459.81
2022-09-11T03:26:57.409Z,101457.94
2022-09-11T03:29:24.771Z,101462.28
2022-09-11T03:31:52.213Z,101464.34
2022-09-11T03:34:19.892Z,101454.66
2022-09-11T03:36:48.225Z,101468.63
2022-09-11T03:39:15.227Z,101468.81
2022-09-11T03:41:41.941Z,101470.44
2022-09-11T03:44:08.685Z,101461.00
2022-09-11T03:46:35.410Z,101470.16
2022-09-11T03:49:02.452Z,101465.72
2022-09-11T03:51:31.268Z,101461.78
2022-09-11T03:54:01.281Z,101458.66
2022-09-11T03:56:29.899Z,101455.72
2022-09-11T03:58:57.345Z,101460.75
2022-09-11T04:01:25.121Z,101460.41
2022-09-11T04:03:53.292Z,101443.78
2022-09-11T04:06:42.583Z,101448.03
2022-09-11T04:09:09.589Z,101453.22
2022-09-11T04:11:39.041Z,101453.09
2022-09-11T04:14:22.547Z,101461.78
2022-09-11T04:16:50.313Z,101458.81
2022-09-11T04:19:18.869Z,101462.34
2022-09-11T04:21:45.612Z,101458.16
2022-09-11T04:24:12.772Z,101459.28
2022-09-11T04:26:39.670Z,101462.91
2022-09-11T04:29:13.004Z,101467.72
2022-09-11T04:31:41.364Z,101471.00
2022-09-11T04:34:09.834Z,101459.47
2022-09-11T04:36:37.508Z,101464.16
2022-09-11T04:39:05.287Z,101459.28
2022-09-11T04:41:32.424Z,101460.75
2022-09-11T04:44:05.168Z,101458.09
2022-09-11T04:46:37.194Z,101466.75
2022-09-11T04:49:08.258Z,101469.13
2022-09-11T04:51:36.599Z,101457.66
2022-09-11T04:54:04.248Z,101462.53
2022-09-11T04:56:38.045Z,101464.94
2022-09-11T04:59:16.244Z,101480.00
2022-09-11T05:01:50.370Z,101474.00
2022-09-11T05:04:21.753Z,101476.38
2022-09-11T05:06:50.155Z,101468.28
2022-09-11T05:09:18.594Z,101477.59
2022-09-11T05:11:47.183Z,101486.28
2022-09-11T05:14:15.277Z,101489.47
2022-09-11T05:16:44.995Z,101493.91
2022-09-11T05:19:12.750Z,101500.88
2022-09-11T05:21:39.957Z,101498.03
2022-09-11T05:24:08.154Z,101495.41
2022-09-11T05:26:37.246Z,101503.97
2022-09-11T05:29:09.141Z,101513.63
2022-09-11T05:31:41.735Z,101509.63
2022-09-11T05:34:09.018Z,101517.84
2022-09-11T05:36:37.064Z,101517.88
2022-09-11T05:39:04.493Z,101520.84
2022-09-11T05:41:33.379Z,101529.38
2022-09-11T05:44:00.250Z,101533.22
2022-09-11T05:46:27.203Z,101532.69
2022-09-11T05:48:59.226Z,101534.31
2022-09-11T05:51:27.374Z,101541.13
2022-09-11T05:53:55.430Z,101546.09
2022-09-11T05:56:23.996Z,101543.41
2022-09-11T05:58:54.050Z,101547.75
2022-09-11T06:01:29.846Z,101549.31
2022-09-11T06:04:10.241Z,101557.94
2022-09-11T06:06:38.471Z,101554.75
2022-09-11T06:09:08.460Z,101560.59
2022-09-11T06:11:35.323Z,101558.56
2022-09-11T06:14:02.809Z,101562.03
2022-09-11T06:16:31.647Z,101564.28
2022-09-11T06:19:05.758Z,101568.00
2022-09-11T06:21:32.577Z,101572.13
2022-09-11T06:24:06.198Z,101570.25
2022-09-11T06:26:35.592Z,101572.66
2022-09-11T06:29:03.153Z,101571.84
2022-09-11T06:31:31.062Z,101579.22
2022-09-11T06:33:57.795Z,101578.38
2022-09-11T06:36:31.511Z,101575.41
2022-09-11T06:39:00.870Z,101568.38
2022-09-11T06:41:28.733Z,101580.06
2022-09-11T06:44:02.594Z,101567.16
2022-09-11T06:46:30.460Z,101569.44
2022-09-11T06:48:58.991Z,101568.09
2022-09-11T06:51:28.254Z,101575.84
2022-09-11T06:53:58.093Z,101566.97
2022-09-11T06:56:28.676Z,101575.47
2022-09-11T06:58:56.201Z,101578.44
2022-09-11T07:01:25.440Z,101578.00
2022-09-11T07:03:59.556Z,101580.25
2022-09-11T07:06:27.709Z,101584.28
2022-09-11T07:09:01.016Z,101575.59
2022-09-11T07:11:34.559Z,101574.16
2022-09-11T07:14:05.750Z,101580.25
2022-09-11T07:16:36.808Z,101575.69
2022-09-11T07:19:09.292Z,101580.53
2022-09-11T07:21:37.249Z,101585.72
2022-09-11T07:24:05.267Z,101580.25
2022-09-11T07:26:42.220Z,101567.13
2022-09-11T07:29:20.770Z,101572.50
2022-09-11T07:31:47.833Z,101578.41
2022-09-11T07:34:15.873Z,101577.56
2022-09-11T07:36:43.308Z,101577.50
2022-09-11T07:39:10.388Z,101575.22
2022-09-11T07:41:46.772Z,101579.84
2022-09-11T07:44:19.652Z,101582.44
2022-09-11T07:46:46.992Z,101579.66
2022-09-11T07:49:14.457Z,101575.78
2022-09-11T07:51:43.928Z,101580.22
2022-09-11T07:54:13.412Z,101581.94
2022-09-11T07:56:44.370Z,101581.59
2022-09-11T07:59:11.833Z,101585.09
2022-09-11T08:01:43.100Z,101580.41
2022-09-11T08:04:12.328Z,101590.38
2022-09-11T08:06:40.329Z,101591.63
2022-09-11T08:09:15.103Z,101600.97
2022-09-11T08:11:48.912Z,101606.16
2022-09-11T08:14:18.176Z,101597.28
2022-09-11T08:16:48.560Z,101597.72
2022-09-11T08:19:18.579Z,101592.25
2022-09-11T08:21:49.895Z,101604.88
2022-09-11T08:24:20.297Z,101601.03
2022-09-11T08:26:50.662Z,101603.09
2022-09-11T08:29:18.997Z,101598.22
2022-09-11T08:31:47.246Z,101595.13
2022-09-11T08:34:15.669Z,101600.72
2022-09-11T08:36:42.741Z,101605.63
2022-09-11T08:39:10.367Z,101609.09
2022-09-11T08:41:53.821Z,101606.16
2022-09-11T08:44:38.985Z,101610.88
2022-09-11T08:47:24.422Z,101617.50
2022-09-11T08:50:02.060Z,101617.25
2022-09-11T08:52:32.577Z,101620.19
2022-09-11T08:55:03.135Z,101617.00
2022-09-11T08:57:49.817Z,101618.44
2022-09-11T09:01:23.845Z,101616.19
2022-09-11T09:04:21.573Z,101618.34
2022-09-11T09:07:23.711Z,101625.22
2022-09-11T09:13:29.827Z,101627.94
2022-09-11T09:16:22.746Z,101643.13
2022-09-11T09:18:53.417Z,101628.28
2022-09-11T09:22:02.093Z,101626.03
2022-09-11T09:24:36.872Z,101626.63
2022-09-11T09:27:35.837Z,101638.88
2022-09-11T09:30:22.534Z,101624.44
2022-09-11T09:33:25.359Z,101625.66
2022-09-11T09:36:51.897Z,101638.63
2022-09-11T09:39:19.785Z,101640.72
2022-09-11T09:41:52.578Z,101639.75
2022-09-11T09:44:25.510Z,101646.41
2022-09-11T09:46:53.418Z,101649.75
2022-09-11T09:49:25.325Z,101638.41
2022-09-11T09:51:54.903Z,101645.44
2022-09-11T09:54:26.724Z,101652.22
2022-09-11T09:57:06.202Z,101648.41
2022-09-11T09:59:41.564Z,101644.44
2022-09-11T10:02:08.536Z,101641.25
2022-09-11T10:04:36.067Z,101651.13
2022-09-11T10:07:11.573Z,101647.31
2022-09-11T10:09:46.887Z,101643.34
2022-09-11T10:12:20.612Z,101651.69
2022-09-11T10:14:58.674Z,101646.06
2022-09-11T10:17:29.460Z,101651.38
2022-09-11T10:20:12.285Z,101645.09
2022-09-11T10:22:39.336Z,101652.16
2022-09-11T10:25:16.892Z,101652.44
2022-09-11T10:28:10.059Z,101647.53
2022-09-11T10:30:39.988Z,101642.94
2022-09-11T10:33:26.431Z,101651.03
2022-09-11T10:35:58.293Z,101648.44
2022-09-11T10:38:32.402Z,101641.06
2022-09-11T10:41:08.477Z,101648.03
2022-09-11T10:44:00.671Z,101660.53
2022-09-11T10:46:41.334Z,101656.50
2022-09-11T10:49:17.226Z,101656.31
2022-09-11T10:51:59.331Z,101650.88
2022-09-11T10:54:54.416Z,101645.38
2022-09-11T10:57:28.080Z,101645.31
2022-09-11T11:00:13.061Z,101642.91
2022-09-11T11:02:51.449Z,101641.00
2022-09-11T11:05:31.422Z,101644.44
2022-09-11T11:08:12.149Z,101639.19
2022-09-11T11:10:56.302Z,101643.38
2022-09-11T11:13:47.534Z,101639.63
2022-09-11T11:16:23.216Z,101644.25
2022-09-11T11:19:29.662Z,101635.06
2022-09-11T11:22:18.461Z,101636.94
2022-09-11T11:25:20.145Z,101637.50
2022-09-11T11:28:11.880Z,101630.00
2022-09-11T11:30:44.894Z,101629.41
2022-09-11T11:33:33.673Z,101627.25
2022-09-11T11:36:05.324Z,101621.28
2022-09-11T11:39:12.895Z,101625.75
2022-09-11T11:41:44.628Z,101621.41
2022-09-11T11:44:15.939Z,101627.38
2022-09-11T11:46:49.519Z,101614.16
2022-09-11T11:49:20.987Z,101613.88
2022-09-11T11:52:00.495Z,101620.09
2022-09-11T11:54:42.731Z,101616.69
2022-09-11T11:57:12.222Z,101609.44
2022-09-11T11:59:54.587Z,101618.53
2022-09-11T12:02:25.445Z,101612.34
2022-09-11T12:05:03.584Z,101607.13
2022-09-11T12:07:34.118Z,101613.25
2022-09-11T12:10:02.954Z,101614.47
2022-09-11T12:12:33.950Z,101605.78
2022-09-11T12:15:06.510Z,101606.88
2022-09-11T12:17:34.300Z,101596.13
2022-09-11T12:20:12.528Z,101600.13
2022-09-11T12:22:50.175Z,101606.06
2022-09-11T12:25:19.818Z,101600.00
2022-09-11T12:27:47.554Z,101599.13
2022-09-11T12:30:17.487Z,101610.81
2022-09-11T12:32:48.833Z,101595.88
2022-09-11T12:35:26.301Z,101603.56
2022-09-11T12:38:09.262Z,101596.81
2022-09-11T12:40:57.352Z,101593.38
2022-09-11T12:43:36.366Z,101588.72
2022-09-11T12:46:10.471Z,101590.44
2022-09-11T12:48:56.271Z,101585.16
2022-09-11T12:51:38.154Z,101583.56
2022-09-11T12:54:16.342Z,101584.75
2022-09-11T12:57:02.311Z,101580.91
2022-09-11T12:59:33.452Z,101581.47
2022-09-11T13:02:01.105Z,101577.72
2022-09-11T13:04:31.095Z,101576.34
2022-09-11T13:07:05.061Z,101579.41
2022-09-11T13:09:38.695Z,101567.41
2022-09-11T13:12:23.919Z,101568.16
2022-09-11T13:14:57.107Z,101567.66
2022-09-11T13:17:30.703Z,101563.66
2022-09-11T13:20:21.972Z,101549.91
2022-09-11T13:22:52.740Z,101553.88
2022-09-11T13:25:22.783Z,101544.84
2022-09-11T13:27:54.465Z,101544.59
2022-09-11T13:30:23.689Z,101535.28
2022-09-11T13:33:14.583Z,101531.81
2022-09-11T13:35:45.093Z,101532.28
2022-09-11T13:38:19.489Z,101532.72
2022-09-11T13:40:56.873Z,101541.06
2022-09-11T13:43:36.014Z,101534.47
2022-09-11T13:46:14.560Z,101529.97
2022-09-11T13:48:43.373Z,101529.97
2022-09-11T13:51:14.604Z,101524.56
2022-09-11T13:53:43.315Z,101524.59
2022-09-11T13:56:20.956Z,101526.28
2022-09-11T13:58:52.894Z,101520.97
2022-09-11T14:01:20.408Z,101516.56
2022-09-11T14:03:48.959Z,101522.44
2022-09-11T14:06:18.934Z,101516.03
2022-09-11T14:08:53.411Z,101514.75
2022-09-11T14:11:26.456Z,101512.00
2022-09-11T14:13:57.305Z,101508.03
2022-09-11T14:16:32.526Z,101501.38
2022-09-11T14:19:09.201Z,101507.13
2022-09-11T14:21:38.065Z,101501.38
2022-09-11T14:24:16.754Z,101489.78
2022-09-11T14:26:43.651Z,101499.13
2022-09-11T14:29:33.907Z,101491.00
2022-09-11T14:32:29.634Z,101498.47
2022-09-11T14:34:56.370Z,101496.53
2022-09-11T14:37:24.043Z,101492.78
2022-09-11T14:39:59.314Z,101483.59
2022-09-11T14:42:29.436Z,101478.53
2022-09-11T14:44:57.661Z,101480.22
2022-09-11T14:47:26.941Z,101485.75
2022-09-11T14:49:55.203Z,101488.53
2022-09-11T14:52:27.679Z,101471.19
2022-09-11T14:54:54.832Z,101475.22
2022-09-11T14:57:24.134Z,101470.81
2022-09-11T14:59:51.610Z,101477.25
2022-09-11T15:02:21.511Z,101477.47
2022-09-11T15:04:48.895Z,101467.78
2022-09-11T15:07:16.854Z,101467.66
2022-09-11T15:09:43.913Z,101460.31
2022-09-11T15:12:11.973Z,101473.44
2022-09-11T15:14:55.706Z,101465.63
2022-09-11T15:17:25.267Z,101467.97
2022-09-11T15:19:52.809Z,101462.63
2022-09-11T15:22:19.723Z,101468.50
2022-09-11T15:24:48.161Z,101464.56
2022-09-11T15:27:27.734Z,101456.56
2022-09-11T15:29:55.204Z,101454.69
2022-09-11T15:32:21.859Z,101440.78
2022-09-11T15:34:48.702Z,101454.34
2022-09-11T15:37:18.491Z,101450.78
2022-09-11T15:39:45.285Z,101443.13
2022-09-11T15:42:12.619Z,101439.34
2022-09-11T15:44:39.573Z,101429.78
2022-09-11T15:47:07.316Z,101426.97
2022-09-11T15:49:39.451Z,101418.22
2022-09-11T15:52:06.332Z,101424.47
2022-09-11T15:54:33.063Z,101427.88
2022-09-11T15:57:00.053Z,101422.28
2022-09-11T15:59:27.101Z,101428.63
2022-09-11T16:01:54.671Z,101426.28
2022-09-11T16:04:27.262Z,101425.47
2022-09-11T16:06:55.278Z,101423.06
2022-09-11T16:09:25.389Z,101412.84
2022-09-11T16:11:54.490Z,101422.34
2022-09-11T16:14:33.323Z,101418.78
2022-09-11T16:17:02.364Z,101413.97
2022-09-11T16:19:30.022Z,101412.72
2022-09-11T16:21:58.039Z,101415.16
2022-09-11T16:24:26.161Z,101412.84
2022-09-11T16:26:56.857Z,101407.72
2022-09-11T16:29:25.705Z,101409.94
2022-09-11T16:31:52.585Z,101408.78
2022-09-11T16:34:19.366Z,101410.31
2022-09-11T16:36:48.928Z,101405.97
2022-09-11T16:39:19.094Z,101409.00
2022-09-11T16:41:46.254Z,101403.25
2022-09-11T16:44:14.964Z,101393.25
2022-09-11T16:46:45.022Z,101405.00
2022-09-11T16:49:17.884Z,101406.19
2022-09-11T16:51:46.251Z,101397.59
2022-09-11T16:54:13.329Z,101394.56
2022-09-11T16:56:45.249Z,101386.28
2022-09-11T16:59:12.733Z,101394.00
2022-09-11T17:01:40.049Z,101384.53
2022-09-11T17:04:06.827Z,101389.38
2022-09-11T17:06:33.969Z,101384.63
2022-09-11T17:09:01.737Z,101382.28
2022-09-11T17:11:31.064Z,101384.47
2022-09-11T17:13:59.914Z,101381.88
2022-09-11T17:16:29.481Z,101373.50
2022-09-11T17:18:56.752Z,101386.75
2022-09-11T17:21:25.746Z,101388.53
2022-09-11T17:23:54.749Z,101382.09
2022-09-11T17:26:22.476Z,101376.63
2022-09-11T17:28:50.081Z,101378.59
2022-09-11T17:31:19.312Z,101379.31
2022-09-11T17:33:47.094Z,101380.75
2022-09-11T17:36:19.707Z,101373.00
2022-09-11T17:38:48.339Z,101370.66
2022-09-11T17:41:16.433Z,101379.66
2022-09-11T17:43:43.638Z,101376.03
2022-09-11T17:46:14.143Z,101372.06
2022-09-11T17:48:41.702Z,101377.47
2022-09-11T17:51:14.189Z,101369.59
2022-09-11T17:53:43.087Z,101365.63
2022-09-11T17:56:15.074Z,101365.78
2022-09-11T17:58:45.165Z,101366.72
2022-09-11T18:01:16.820Z,101371.28
2022-09-11T18:03:44.303Z,101360.69
2022-09-11T18:06:21.270Z,101363.44
2022-09-11T18:08:48.019Z,101354.75
2022-09-11T18:11:14.753Z,101355.91
2022-09-11T18:13:42.980Z,101361.69
2022-09-11T18:16:11.610Z,101346.25
2022-09-11T18:18:41.810Z,101354.56
2022-09-11T18:21:10.272Z,101356.16
2022-09-11T18:23:42.505Z,101349.38
2022-09-11T18:26:16.945Z,101363.19
2022-09-11T18:28:44.069Z,101364.34
2022-09-11T18:31:11.471Z,101357.22
2022-09-11T18:33:38.133Z,101361.47
2022-09-11T18:36:07.949Z,101363.44
2022-09-11T18:38:35.606Z,101360.66
2022-09-11T18:41:02.208Z,101362.13
2022-09-11T18:43:29.708Z,101363.63
2022-09-11T18:45:56.543Z,101368.78
2022-09-11T18:48:23.240Z,101368.00
2022-09-11T18:50:51.176Z,101366.78
2022-09-11T18:53:18.112Z,101379.31
2022-09-11T18:55:44.802Z,101382.44
2022-09-11T18:58:11.833Z,101389.03
2022-09-11T19:00:38.836Z,101379.28
2022-09-11T19:03:05.704Z,101378.84
2022-09-11T19:05:32.404Z,101383.16
2022-09-11T19:08:01.209Z,101381.91
2022-09-11T19:10:28.811Z,101394.00
2022-09-11T19:12:55.557Z,101379.81
2022-09-11T19:15:23.105Z,101384.97
2022-09-11T19:17:50.182Z,101383.72
2022-09-11T19:20:17.031Z,101393.06
2022-09-11T19:22:44.327Z,101386.13
2022-09-11T19:25:11.151Z,101397.72
2022-09-11T19:27:38.155Z,101386.41
2022-09-11T19:30:06.907Z,101393.59
2022-09-11T19:32:33.631Z,101389.13
2022-09-11T19:35:00.663Z,101384.72
2022-09-11T19:37:28.370Z,101385.47
2022-09-11T19:39:57.182Z,101387.13
2022-09-11T19:42:24.184Z,101382.41
2022-09-11T19:44:55.653Z,101379.59
2022-09-11T19:47:25.026Z,101375.09
2022-09-11T19:49:51.728Z,101381.41
2022-09-11T19:52:18.607Z,101375.03
2022-09-11T20:11:42.773Z,101384.91
2022-09-11T20:14:09.953Z,101384.66
2022-09-11T20:16:36.744Z,101379.19
2022-09-11T20:19:07.085Z,101381.03
2022-09-11T20:32:19.861Z,101389.31
2022-09-11T20:34:46.534Z,101393.59
2022-09-11T20:37:13.642Z,101387.50
2022-09-11T20:39:40.421Z,101385.94
2022-09-11T20:42:10.021Z,101384.06
2022-09-11T20:44:37.268Z,101385.41
2022-09-11T20:47:04.250Z,101384.06
2022-09-11T20:49:31.234Z,101384.91
2022-09-11T20:51:58.067Z,101389.19
2022-09-11T20:54:24.671Z,101386.97
2022-09-11T20:56:51.335Z,101388.06
2022-09-11T20:59:18.042Z,101396.69
2022-09-11T21:01:44.814Z,101383.22
2022-09-11T21:04:11.515Z,101381.94
2022-09-11T21:06:38.173Z,101383.41
2022-09-11T21:09:10.972Z,101372.78
2022-09-11T21:11:40.206Z,101378.38
2022-09-11T21:14:07.456Z,101380.53
2022-09-11T21:16:35.477Z,101375.09
2022-09-11T21:19:02.647Z,101378.19
2022-09-11T21:21:30.101Z,101379.00
2022-09-11T21:24:06.006Z,101375.03
2022-09-11T21:26:34.531Z,101382.38
2022-09-11T21:29:04.175Z,101377.78
2022-09-11T21:31:31.076Z,101382.84
2022-09-11T21:33:58.545Z,101375.41
2022-09-11T21:36:25.719Z,101376.47
2022-09-11T21:38:53.402Z,101381.69
2022-09-11T21:41:20.253Z,101373.50
2022-09-11T21:43:47.814Z,101372.00
2022-09-11T21:46:14.796Z,101364.41
2022-09-11T21:48:42.222Z,101368.53
2022-09-11T21:51:11.927Z,101361.00
2022-09-11T21:53:39.844Z,101364.84
2022-09-11T21:56:20.207Z,101363.69
2022-09-11T21:58:48.666Z,101353.50
2022-09-11T22:01:15.467Z,101373.03
2022-09-11T22:03:42.218Z,101378.56
2022-09-11T22:06:10.708Z,101374.50
2022-09-11T22:08:39.805Z,101370.91
2022-09-11T22:11:07.093Z,101376.38
2022-09-11T22:13:35.466Z,101372.03
2022-09-11T22:16:10.465Z,101373.69
2022-09-11T22:18:38.357Z,101367.91
2022-09-11T22:21:05.509Z,101375.66
2022-09-11T22:23:32.679Z,101373.03
2022-09-11T22:26:13.156Z,101364.78
2022-09-11T22:28:40.409Z,101359.56
2022-09-11T22:31:16.770Z,101363.13
2022-09-11T22:33:43.692Z,101353.16
2022-09-11T22:36:14.695Z,101353.31
2022-09-11T22:38:41.421Z,101343.91
2022-09-11T22:41:08.552Z,101341.84
2022-09-11T22:43:35.570Z,101344.66
2022-09-11T22:46:02.233Z,101342.41
2022-09-11T22:48:28.989Z,101343.88
2022-09-11T22:50:57.543Z,101342.41
2022-09-11T22:53:25.273Z,101337.66
2022-09-11T22:55:53.997Z,101339.28
2022-09-11T22:58:21.299Z,101334.88
2022-09-11T23:00:49.095Z,101328.09
2022-09-11T23:03:15.937Z,101330.41
2022-09-11T23:06:01.107Z,101337.94
2022-09-11T23:08:38.394Z,101321.94
2022-09-11T23:11:05.955Z,101325.44
2022-09-11T23:13:33.011Z,101329.97
2022-09-11T23:16:00.024Z,101320.13
2022-09-11T23:18:27.938Z,101324.13
2022-09-11T23:20:58.400Z,101319.34
2022-09-11T23:23:28.094Z,101326.06
2022-09-11T23:25:55.299Z,101322.25
2022-09-11T23:28:22.614Z,101314.81
2022-09-11T23:30:49.716Z,101314.72
2022-09-11T23:33:16.345Z,101305.31
2022-09-11T23:35:42.989Z,101306.53
2022-09-11T23:38:10.293Z,101302.91
2022-09-11T23:40:36.907Z,101310.03
2022-09-11T23:43:03.683Z,101308.78
2022-09-11T23:45:30.323Z,101307.34
2022-09-11T23:47:57.002Z,101304.38
2022-09-11T23:50:24.589Z,101299.47
2022-09-11T23:52:51.279Z,101306.41
2022-09-11T23:55:19.098Z,101300.84
2022-09-11T23:57:46.318Z,101302.97
